This is the latest recevied weather packets stored in our database for station/object EA3FHP. If no packets are shown the sender has not sent any weather packets the latest 10 day(s).
| Time | Temp. | Humidity | Pressure | Rain* | Wind** | Luminosity | Snow |
|---|---|---|---|---|---|---|---|
| 1777387203 | 25° C | 39% | 1013.5 hPa | 0 mm | - | - | - |
| 1777386603 | 25° C | 38% | 1013.6 hPa | 0 mm | - | - | - |
| 1777386003 | 25° C | 39% | 1013.6 hPa | 0 mm | - | - | - |
| 1777385403 | 24.44° C | 40% | 1013.8 hPa | 0 mm | - | - | - |
| 1777384803 | 23.89° C | 45% | 1014 hPa | 0 mm | - | - | - |
| 1777384203 | 25° C | 39% | 1013.9 hPa | 0 mm | - | - | - |
| 1777323603 | 15° C | 84% | 1019.4 hPa | 0 mm | - | - | - |
| 1777323003 | 15.56° C | 83% | 1019.3 hPa | 0 mm | - | - | - |
| 1777322403 | 15.56° C | 83% | 1019.4 hPa | 0 mm | - | - | - |
| 1777321803 | 15.56° C | 83% | 1019.4 hPa | 0 mm | - | - | - |
| 1777321203 | 15.56° C | 83% | 1019.6 hPa | 0 mm | - | - | - |
| 1777320603 | 15.56° C | 82% | 1019.7 hPa | 0 mm | - | - | - |
| 1777320003 | 15.56° C | 82% | 1019.6 hPa | 0 mm | - | - | - |
| 1777319403 | 15.56° C | 82% | 1019.7 hPa | 0 mm | - | - | - |
| 1777318804 | 15.56° C | 81% | 1019.6 hPa | 0 mm | - | - | - |
| 1777318203 | 15.56° C | 81% | 1019.5 hPa | 0 mm | - | - | - |
| 1777317603 | 15.56° C | 81% | 1019.4 hPa | 0 mm | - | - | - |
| 1777317003 | 15.56° C | 81% | 1019.2 hPa | 0 mm | - | - | - |
| 1777316404 | 15.56° C | 81% | 1019.3 hPa | 0 mm | - | - | - |
| 1777315803 | 15.56° C | 82% | 1019.3 hPa | 0 mm | - | - | - |
| 1777315203 | 15.56° C | 82% | 1019.3 hPa | 0 mm | - | - | - |
| 1777314603 | 15.56° C | 82% | 1019.3 hPa | 0 mm | - | - | - |
| 1777306803 | 18.33° C | 72% | 1019 hPa | 0 mm | - | - | - |
| 1777306203 | 18.89° C | 70% | 1019.1 hPa | 0 mm | - | - | - |
| 1777305604 | 19.44° C | 68% | 1018.8 hPa | 0 mm | - | - | - |
* Rain latest hour (hover to see other rain measurements)
** Current wind speed in m/s (hover to see current wind gust speed)